Nearby METAR Reports

 

LEVT - Vitoria, Spain
Distance from station: O 10km
Actualización: 27/02/2020 05:00
Parcialmente nuboso
Parcialmente nuboso
 Viento del O
Viento: O 11 km/h
Temperatura: 8°C
Wind Chill: 6°C
Rocío: 4°C
Humedad: 76%
Barómetro: 1016 hPa
Clouds: Parcialmente nuboso
Visibility: 10 km
Cloud details: Parcialmente nuboso 1951 m
2020/02/27 04:00 LEVT 270400Z 26006KT 210V300 9999 SCT064 08/04 Q1016
LELO - Logrono/Agoncill, Spain
Distance from station: SSE 51km
Actualización: 27/02/2020 05:00
Cubierto
Cubierto
 Viento del calm
Viento: Calma
Temperatura: 4°C
Rocío: 2°C
Humedad: 87%
Barómetro: 1018 hPa
Clouds: Cubierto
Visibility: 10 km
Cloud details: Cubierto 2073 m
2020/02/27 04:00 LELO 270400Z AUTO 00000KT 9999 OVC068 04/02 Q1018
LEBB - Bilbao/Sondica, Spain
Distance from station: NNO 54km
Actualización: 27/02/2020 05:00
Parcialmente nuboso
Parcialmente nuboso
 Viento del varies
Viento: varies 6 km/h
Temperatura: 12°C
Rocío: 6°C
Humedad: 67%
Barómetro: 1014 hPa
Clouds: Parcialmente nuboso
Visibility: 10 km
Cloud details: Parcialmente nuboso 1920 m
2020/02/27 04:00 LEBB 270400Z VRB03KT 9999 SCT063 12/06 Q1014 NOSIG
 
LEPP - Pamplona/Noain, Spain
Distance from station: E 78km
Actualización: 27/02/2020 05:00
Despejado
Despejado
 Viento del SSE
Viento: SSE 6 km/h
Temperatura: 6°C
Rocío: 3°C
Humedad: 81%
Barómetro: 1017 hPa
Resumen: Despejado
Visibility: greater than 10 km
2020/02/27 04:00 LEPP 270400Z AUTO 15003KT 110V200 CAVOK 06/03 Q1017
LESO - San Sebastian/Fu, Spain
Distance from station: NE 85km
Actualización: 27/02/2020 05:00
Cubierto
Cubierto
 Viento del SSO
Viento: SSO 15 km/h
Temperatura: 11°C
Rocío: 6°C
Humedad: 72%
Barómetro: 1014 hPa
Clouds: Cubierto
Visibility: 10 km
Cloud details: Cubierto 1829 m
2020/02/27 04:00 LESO 270400Z AUTO 21008KT 9999 OVC060 11/06 Q1014
LEBG - Burgos/Villafria, Spain
Distance from station: SO 100km
Actualización: 27/02/2020 05:00
Cubierto
Cubierto
 Viento del SSO
Viento: SSO 17 km/h
Temperatura: 4°C
Wind Chill: 0°C
Rocío: 2°C
Humedad: 87%
Barómetro: 1019 hPa
Clouds: Cubierto
Visibility: 10 km
Cloud details: Cubierto 762 m
2020/02/27 04:00 LEBG 270400Z AUTO 20009KT 170V230 9999 OVC025 04/02 Q1019
 
LFBZ - Biarritz/Anglet, France
Distance from station: NE 111km
Actualización: 27/02/2020 05:00
Cubierto
Cubierto
 Viento del S
Viento: S 11 km/h
Temperatura: 9°C
Wind Chill: 7°C
Rocío: 7°C
Humedad: 87%
Barómetro: 1013 hPa
Clouds: Cubierto
Visibility: 10 km
Cloud details: Few Clouds 1494 m
Muy nuboso 1707 m
Cubierto 2195 m
2020/02/27 04:00 LFBZ 270400Z AUTO 18006KT 130V220 9999 FEW049 BKN056 OVC072 09/07 Q1013 TEMPO 4000 -RA
LEXJ - Santander/Paraya, Spain
Distance from station: ONO 117km
Actualización: 27/02/2020 05:00
Despejado
Despejado
 Viento del OSO
Viento: OSO 15 km/h
Temperatura: 12°C
Rocío: 6°C
Humedad: 67%
Barómetro: 1014 hPa
Clouds: Despejado
Visibility: 8 km
2020/02/27 04:00 LEXJ 270400Z AUTO 25008KT 8000 NCD 12/06 Q1014